TPC978 KMEM-KMEM
Flight info
| Callsign | TPC978 |
|---|---|
| Flight time | 0h 12m |
| Altitude | VFR |
| Route | |
| Aircraft | C172/L-DOV/C |
Departure
| Time | 2026-05-07 23:27 |
|---|---|
| Airport | Memphis International Airport (KMEM) |
Arrival
| Time | 2026-05-07 23:40 |
|---|---|
| Airport | Memphis International Airport (KMEM) |
| Time | Latitude | Longitude | Altitude | Speed | Heading |
|---|---|---|---|---|---|
| 2026-05-07 23:08 | 35.05463 | -89.98221 | 287 ft | 0 kts | 271° |
| 2026-05-07 23:14 | 35.05463 | -89.98229 | 287 ft | 4 kts | 271° |
| 2026-05-07 23:15 | 35.05487 | -89.98300 | 285 ft | 14 kts | 297° |
| 2026-05-07 23:15 | 35.05554 | -89.98388 | 283 ft | 12 kts | 314° |
| 2026-05-07 23:15 | 35.05571 | -89.98481 | 281 ft | 11 kts | 266° |
| 2026-05-07 23:15 | 35.05509 | -89.98506 | 281 ft | 9 kts | 183° |
| 2026-05-07 23:16 | 35.05449 | -89.98510 | 280 ft | 8 kts | 179° |
| 2026-05-07 23:16 | 35.05402 | -89.98510 | 280 ft | 6 kts | 178° |
| 2026-05-07 23:16 | 35.05381 | -89.98510 | 281 ft | 0 kts | 180° |
| 2026-05-07 23:16 | 35.05364 | -89.98510 | 282 ft | 6 kts | 181° |
| 2026-05-07 23:17 | 35.05294 | -89.98511 | 281 ft | 15 kts | 181° |
| 2026-05-07 23:17 | 35.05168 | -89.98515 | 290 ft | 17 kts | 181° |
| 2026-05-07 23:17 | 35.05029 | -89.98514 | 291 ft | 23 kts | 180° |
| 2026-05-07 23:17 | 35.04852 | -89.98513 | 293 ft | 28 kts | 180° |
| 2026-05-07 23:18 | 35.04651 | -89.98508 | 293 ft | 29 kts | 178° |
| 2026-05-07 23:18 | 35.04453 | -89.98505 | 292 ft | 27 kts | 176° |
| 2026-05-07 23:18 | 35.04280 | -89.98501 | 293 ft | 23 kts | 178° |
| 2026-05-07 23:18 | 35.04128 | -89.98496 | 293 ft | 20 kts | 179° |
| 2026-05-07 23:19 | 35.04002 | -89.98494 | 299 ft | 16 kts | 178° |
| 2026-05-07 23:19 | 35.03907 | -89.98493 | 300 ft | 12 kts | 176° |
| 2026-05-07 23:19 | 35.03838 | -89.98492 | 301 ft | 8 kts | 177° |
| 2026-05-07 23:19 | 35.03787 | -89.98487 | 302 ft | 7 kts | 178° |
| 2026-05-07 23:20 | 35.03733 | -89.98489 | 303 ft | 9 kts | 179° |
| 2026-05-07 23:20 | 35.03661 | -89.98485 | 305 ft | 12 kts | 179° |
| 2026-05-07 23:20 | 35.03574 | -89.98482 | 308 ft | 13 kts | 175° |
| 2026-05-07 23:20 | 35.03475 | -89.98478 | 310 ft | 15 kts | 179° |
| 2026-05-07 23:21 | 35.03357 | -89.98476 | 309 ft | 19 kts | 179° |
| 2026-05-07 23:21 | 35.03231 | -89.98473 | 310 ft | 17 kts | 179° |
| 2026-05-07 23:21 | 35.03126 | -89.98471 | 312 ft | 14 kts | 178° |
| 2026-05-07 23:21 | 35.03038 | -89.98468 | 311 ft | 12 kts | 180° |
| 2026-05-07 23:22 | 35.02953 | -89.98467 | 309 ft | 12 kts | 176° |
| 2026-05-07 23:22 | 35.02874 | -89.98464 | 309 ft | 10 kts | 180° |
| 2026-05-07 23:22 | 35.02814 | -89.98465 | 310 ft | 7 kts | 179° |
| 2026-05-07 23:22 | 35.02755 | -89.98461 | 312 ft | 11 kts | 177° |
| 2026-05-07 23:23 | 35.02655 | -89.98462 | 314 ft | 18 kts | 179° |
| 2026-05-07 23:23 | 35.02508 | -89.98459 | 315 ft | 24 kts | 178° |
| 2026-05-07 23:23 | 35.02408 | -89.98491 | 318 ft | 10 kts | 255° |
| 2026-05-07 23:23 | 35.02407 | -89.98500 | 318 ft | 0 kts | 270° |
| 2026-05-07 23:25 | 35.02407 | -89.98504 | 318 ft | 6 kts | 272° |
| 2026-05-07 23:25 | 35.02408 | -89.98634 | 318 ft | 15 kts | 278° |
| 2026-05-07 23:26 | 35.02470 | -89.98692 | 317 ft | 6 kts | 4° |
| 2026-05-07 23:26 | 35.02472 | -89.98692 | 317 ft | 0 kts | 9° |
| 2026-05-07 23:26 | 35.02473 | -89.98692 | 317 ft | 3 kts | 6° |
| 2026-05-07 23:26 | 35.02672 | -89.98698 | 310 ft | 53 kts | 359° |
| 2026-05-07 23:27 | 35.03715 | -89.98728 | 538 ft | 81 kts | 359° |
| 2026-05-07 23:27 | 35.04276 | -89.98731 | 796 ft | 76 kts | 0° |
| 2026-05-07 23:27 | 35.04803 | -89.98733 | 1019 ft | 76 kts | 0° |
| 2026-05-07 23:28 | 35.05323 | -89.98786 | 1204 ft | 78 kts | 354° |
| 2026-05-07 23:28 | 35.05874 | -89.98950 | 1345 ft | 83 kts | 326° |
| 2026-05-07 23:28 | 35.06075 | -89.99641 | 1358 ft | 98 kts | 272° |
| 2026-05-07 23:28 | 35.06083 | -90.00445 | 1256 ft | 99 kts | 262° |
| 2026-05-07 23:29 | 35.05582 | -90.00968 | 1241 ft | 105 kts | 176° |
| 2026-05-07 23:29 | 35.04855 | -90.00820 | 1279 ft | 105 kts | 177° |
| 2026-05-07 23:29 | 35.04140 | -90.00786 | 1326 ft | 104 kts | 182° |
| 2026-05-07 23:29 | 35.03416 | -90.00797 | 1309 ft | 106 kts | 182° |
| 2026-05-07 23:30 | 35.02677 | -90.00811 | 1279 ft | 106 kts | 183° |
| 2026-05-07 23:30 | 35.01971 | -90.00842 | 1359 ft | 98 kts | 184° |
| 2026-05-07 23:30 | 35.01295 | -90.00875 | 1331 ft | 100 kts | 184° |
| 2026-05-07 23:30 | 35.00602 | -90.00923 | 1317 ft | 102 kts | 185° |
| 2026-05-07 23:31 | 34.99923 | -90.00761 | 1304 ft | 104 kts | 140° |
| 2026-05-07 23:31 | 34.99704 | -89.99986 | 1290 ft | 97 kts | 88° |
| 2026-05-07 23:31 | 34.99687 | -89.99216 | 1310 ft | 84 kts | 84° |
| 2026-05-07 23:31 | 34.99922 | -89.98619 | 1192 ft | 82 kts | 26° |
| 2026-05-07 23:32 | 35.00470 | -89.98618 | 1079 ft | 75 kts | 354° |
| 2026-05-07 23:32 | 35.00957 | -89.98664 | 898 ft | 64 kts | 357° |
| 2026-05-07 23:32 | 35.01406 | -89.98671 | 658 ft | 63 kts | 359° |
| 2026-05-07 23:32 | 35.01841 | -89.98678 | 479 ft | 63 kts | 356° |
| 2026-05-07 23:33 | 35.02297 | -89.98697 | 403 ft | 66 kts | 359° |
| 2026-05-07 23:33 | 35.02730 | -89.98694 | 322 ft | 56 kts | 359° |
| 2026-05-07 23:33 | 35.03070 | -89.98706 | 309 ft | 58 kts | 0° |
| 2026-05-07 23:33 | 35.03577 | -89.98718 | 331 ft | 84 kts | 359° |
| 2026-05-07 23:34 | 35.04163 | -89.98724 | 549 ft | 78 kts | 0° |
| 2026-05-07 23:34 | 35.04685 | -89.98735 | 805 ft | 73 kts | 359° |
| 2026-05-07 23:34 | 35.05218 | -89.98765 | 972 ft | 77 kts | 360° |
| 2026-05-07 23:34 | 35.05788 | -89.98786 | 1076 ft | 87 kts | 359° |
| 2026-05-07 23:35 | 35.06373 | -89.98833 | 1312 ft | 81 kts | 343° |
| 2026-05-07 23:35 | 35.06786 | -89.99363 | 1377 ft | 99 kts | 289° |
| 2026-05-07 23:35 | 35.06787 | -90.00248 | 1370 ft | 108 kts | 271° |
| 2026-05-07 23:35 | 35.06741 | -90.01168 | 1373 ft | 108 kts | 261° |
| 2026-05-07 23:36 | 35.06233 | -90.01800 | 1345 ft | 114 kts | 185° |
| 2026-05-07 23:36 | 35.05445 | -90.01682 | 1361 ft | 114 kts | 174° |
| 2026-05-07 23:36 | 35.04655 | -90.01602 | 1370 ft | 114 kts | 176° |
| 2026-05-07 23:36 | 35.03868 | -90.01523 | 1359 ft | 114 kts | 176° |
| 2026-05-07 23:37 | 35.03135 | -90.01448 | 1393 ft | 102 kts | 176° |
| 2026-05-07 23:37 | 35.02424 | -90.01384 | 1356 ft | 100 kts | 178° |
| 2026-05-07 23:37 | 35.01737 | -90.01334 | 1297 ft | 102 kts | 177° |
| 2026-05-07 23:37 | 35.01030 | -90.01297 | 1281 ft | 101 kts | 180° |
| 2026-05-07 23:38 | 35.00433 | -90.00937 | 1259 ft | 101 kts | 118° |
| 2026-05-07 23:38 | 35.00274 | -90.00123 | 1194 ft | 95 kts | 95° |
| 2026-05-07 23:38 | 35.00247 | -89.99324 | 1103 ft | 94 kts | 88° |
| 2026-05-07 23:38 | 35.00474 | -89.98664 | 998 ft | 86 kts | 24° |
| 2026-05-07 23:39 | 35.01034 | -89.98678 | 842 ft | 74 kts | 352° |
| 2026-05-07 23:39 | 35.01520 | -89.98677 | 625 ft | 66 kts | 358° |
| 2026-05-07 23:39 | 35.01954 | -89.98686 | 457 ft | 60 kts | 359° |
| 2026-05-07 23:39 | 35.02382 | -89.98694 | 357 ft | 61 kts | 359° |
| 2026-05-07 23:40 | 35.02771 | -89.98702 | 309 ft | 45 kts | 355° |
| 2026-05-07 23:40 | 35.03082 | -89.98708 | 309 ft | 59 kts | 0° |
| 2026-05-07 23:40 | 35.03598 | -89.98717 | 323 ft | 86 kts | 359° |
| 2026-05-07 23:40 | 35.04236 | -89.98733 | 423 ft | 92 kts | 358° |
| 2026-05-07 23:41 | 35.04797 | -89.98767 | 741 ft | 77 kts | 356° |
| 2026-05-07 23:41 | 35.05362 | -89.98821 | 871 ft | 84 kts | 356° |
| 2026-05-07 23:41 | 35.05911 | -89.98901 | 1082 ft | 81 kts | 352° |
| 2026-05-07 23:41 | 35.06399 | -89.99176 | 1294 ft | 81 kts | 306° |
| 2026-05-07 23:42 | 35.06497 | -89.99930 | 1296 ft | 101 kts | 275° |
| 2026-05-07 23:42 | 35.06454 | -90.00787 | 1344 ft | 98 kts | 268° |
| 2026-05-07 23:42 | 35.06018 | -90.01385 | 1295 ft | 109 kts | 184° |
| 2026-05-07 23:42 | 35.05261 | -90.01185 | 1311 ft | 110 kts | 172° |
| 2026-05-07 23:43 | 35.04511 | -90.01081 | 1353 ft | 109 kts | 177° |
| 2026-05-07 23:43 | 35.03759 | -90.01021 | 1362 ft | 108 kts | 179° |
| 2026-05-07 23:43 | 35.02997 | -90.00963 | 1315 ft | 112 kts | 177° |
| 2026-05-07 23:43 | 35.02209 | -90.00894 | 1275 ft | 112 kts | 177° |
| 2026-05-07 23:44 | 35.01480 | -90.00833 | 1306 ft | 101 kts | 176° |
| 2026-05-07 23:44 | 35.00784 | -90.00768 | 1279 ft | 100 kts | 179° |
| 2026-05-07 23:44 | 35.00183 | -90.00452 | 1262 ft | 97 kts | 121° |
| 2026-05-07 23:44 | 35.00074 | -89.99639 | 1149 ft | 95 kts | 85° |
| 2026-05-07 23:45 | 35.00157 | -89.98912 | 1053 ft | 84 kts | 60° |
| 2026-05-07 23:45 | 35.00626 | -89.98624 | 903 ft | 76 kts | 355° |
| 2026-05-07 23:45 | 35.01113 | -89.98675 | 728 ft | 69 kts | 2° |
| 2026-05-07 23:45 | 35.01570 | -89.98692 | 558 ft | 63 kts | 360° |
| 2026-05-07 23:46 | 35.02005 | -89.98695 | 430 ft | 63 kts | 357° |
| 2026-05-07 23:46 | 35.02456 | -89.98698 | 371 ft | 63 kts | 360° |
| 2026-05-07 23:46 | 35.02815 | -89.98706 | 310 ft | 42 kts | 358° |
| 2026-05-07 23:46 | 35.03224 | -89.98710 | 313 ft | 74 kts | 359° |
| 2026-05-07 23:47 | 35.03799 | -89.98728 | 407 ft | 85 kts | 358° |
| 2026-05-07 23:47 | 35.04324 | -89.98782 | 678 ft | 75 kts | 353° |
| 2026-05-07 23:47 | 35.04867 | -89.98875 | 836 ft | 83 kts | 354° |
| 2026-05-07 23:47 | 35.05425 | -89.98966 | 1032 ft | 82 kts | 353° |
| 2026-05-07 23:48 | 35.06005 | -89.99084 | 1236 ft | 79 kts | 330° |
| 2026-05-07 23:48 | 35.06176 | -89.99727 | 1351 ft | 97 kts | 272° |
| 2026-05-07 23:48 | 35.06117 | -90.00567 | 1367 ft | 101 kts | 250° |
| 2026-05-07 23:48 | 35.05474 | -90.00874 | 1261 ft | 115 kts | 165° |
| 2026-05-07 23:49 | 35.04695 | -90.00729 | 1344 ft | 106 kts | 177° |
| 2026-05-07 23:49 | 35.03951 | -90.00662 | 1342 ft | 108 kts | 176° |
| 2026-05-07 23:49 | 35.03195 | -90.00615 | 1303 ft | 109 kts | 178° |
| 2026-05-07 23:49 | 35.02430 | -90.00594 | 1251 ft | 110 kts | 181° |
| 2026-05-07 23:50 | 35.01676 | -90.00584 | 1261 ft | 104 kts | 179° |
| 2026-05-07 23:50 | 35.00969 | -90.00567 | 1280 ft | 99 kts | 181° |
| 2026-05-07 23:50 | 35.00270 | -90.00547 | 1253 ft | 102 kts | 173° |
| 2026-05-07 23:50 | 34.99827 | -89.99989 | 1218 ft | 98 kts | 90° |
| 2026-05-07 23:51 | 34.99846 | -89.99213 | 1125 ft | 85 kts | 85° |
| 2026-05-07 23:51 | 35.00120 | -89.98673 | 988 ft | 78 kts | 11° |
| 2026-05-07 23:51 | 35.00624 | -89.98672 | 856 ft | 65 kts | 359° |
| 2026-05-07 23:51 | 35.01077 | -89.98683 | 684 ft | 66 kts | 2° |
| 2026-05-07 23:52 | 35.01523 | -89.98682 | 540 ft | 65 kts | 0° |
| 2026-05-07 23:52 | 35.01974 | -89.98690 | 456 ft | 66 kts | 358° |
| 2026-05-07 23:52 | 35.02420 | -89.98692 | 370 ft | 63 kts | 359° |
| 2026-05-07 23:52 | 35.02778 | -89.98699 | 309 ft | 43 kts | 359° |
| 2026-05-07 23:53 | 35.03167 | -89.98708 | 311 ft | 71 kts | 360° |
| 2026-05-07 23:53 | 35.03724 | -89.98724 | 400 ft | 84 kts | 358° |
| 2026-05-07 23:53 | 35.04283 | -89.98757 | 633 ft | 79 kts | 356° |
| 2026-05-07 23:53 | 35.04819 | -89.98806 | 851 ft | 78 kts | 355° |
| 2026-05-07 23:54 | 35.05385 | -89.98868 | 1003 ft | 83 kts | 357° |
| 2026-05-07 23:54 | 35.05947 | -89.99012 | 1179 ft | 84 kts | 320° |
| 2026-05-07 23:54 | 35.06090 | -89.99699 | 1333 ft | 95 kts | 271° |
| 2026-05-07 23:54 | 35.06059 | -90.00561 | 1269 ft | 106 kts | 270° |
| 2026-05-07 23:55 | 35.05775 | -90.01355 | 1307 ft | 108 kts | 214° |
| 2026-05-07 23:55 | 35.05027 | -90.01439 | 1337 ft | 112 kts | 177° |
| 2026-05-07 23:55 | 35.04241 | -90.01362 | 1345 ft | 115 kts | 178° |
| 2026-05-07 23:55 | 35.03459 | -90.01346 | 1372 ft | 112 kts | 180° |
| 2026-05-07 23:56 | 35.02678 | -90.01319 | 1364 ft | 112 kts | 179° |
| 2026-05-07 23:56 | 35.01915 | -90.01263 | 1371 ft | 107 kts | 176° |
| 2026-05-07 23:56 | 35.01195 | -90.01209 | 1342 ft | 103 kts | 178° |
| 2026-05-07 23:56 | 35.00464 | -90.01165 | 1324 ft | 102 kts | 177° |
| 2026-05-07 23:57 | 34.99886 | -90.00740 | 1222 ft | 103 kts | 106° |
| 2026-05-07 23:57 | 34.99832 | -89.99921 | 1182 ft | 94 kts | 89° |
| 2026-05-07 23:57 | 34.99821 | -89.99143 | 1100 ft | 91 kts | 85° |
| 2026-05-07 23:57 | 35.00173 | -89.98661 | 1053 ft | 82 kts | 7° |
| 2026-05-07 23:58 | 35.00725 | -89.98671 | 940 ft | 72 kts | 2° |
| 2026-05-07 23:58 | 35.01218 | -89.98671 | 740 ft | 70 kts | 356° |
| 2026-05-07 23:58 | 35.01687 | -89.98688 | 574 ft | 65 kts | 0° |
| 2026-05-07 23:58 | 35.02136 | -89.98691 | 414 ft | 66 kts | 0° |
| 2026-05-07 23:59 | 35.02591 | -89.98696 | 337 ft | 59 kts | 1° |
| 2026-05-07 23:59 | 35.02911 | -89.98701 | 311 ft | 36 kts | 0° |
| 2026-05-07 23:59 | 35.03272 | -89.98704 | 314 ft | 69 kts | 0° |
| 2026-05-07 23:59 | 35.03822 | -89.98731 | 363 ft | 88 kts | 360° |
| 2026-05-08 00:00 | 35.04419 | -89.98725 | 613 ft | 79 kts | 2° |
| 2026-05-08 00:00 | 35.04958 | -89.98712 | 818 ft | 79 kts | 1° |
| 2026-05-08 00:00 | 35.05492 | -89.98741 | 999 ft | 78 kts | 357° |
| 2026-05-08 00:00 | 35.05992 | -89.98893 | 1195 ft | 79 kts | 311° |
| 2026-05-08 00:01 | 35.06103 | -89.99625 | 1255 ft | 101 kts | 273° |
| 2026-05-08 00:01 | 35.05977 | -90.00467 | 1421 ft | 102 kts | 232° |
| 2026-05-08 00:01 | 35.05284 | -90.00728 | 1467 ft | 113 kts | 178° |
| 2026-05-08 00:01 | 35.04469 | -90.00664 | 1443 ft | 118 kts | 180° |
| 2026-05-08 00:02 | 35.03645 | -90.00697 | 1472 ft | 118 kts | 186° |
| 2026-05-08 00:02 | 35.03112 | -90.00757 | 1504 ft | 116 kts | 186° |
| 2026-05-08 00:02 | 35.02291 | -90.00841 | 1464 ft | 120 kts | 187° |
| 2026-05-08 00:02 | 35.01446 | -90.00912 | 1423 ft | 123 kts | 184° |
| 2026-05-08 00:03 | 35.00341 | -90.00923 | 1466 ft | 121 kts | 179° |
| 2026-05-08 00:03 | 34.99484 | -90.00875 | 1475 ft | 119 kts | 180° |
| 2026-05-08 00:03 | 34.98944 | -90.00867 | 1622 ft | 110 kts | 176° |
| 2026-05-08 00:03 | 34.98105 | -90.00311 | 1838 ft | 113 kts | 120° |
| 2026-05-08 00:04 | 34.97981 | -89.99733 | 2017 ft | 103 kts | 83° |
| 2026-05-08 00:04 | 34.98172 | -89.98871 | 2121 ft | 106 kts | 69° |
| 2026-05-08 00:04 | 34.98413 | -89.98028 | 2302 ft | 105 kts | 64° |
| 2026-05-08 00:04 | 34.98718 | -89.97195 | 2350 ft | 115 kts | 64° |
| 2026-05-08 00:05 | 34.99011 | -89.96263 | 2392 ft | 120 kts | 68° |
| 2026-05-08 00:05 | 34.99287 | -89.95318 | 2478 ft | 119 kts | 70° |
| 2026-05-08 00:05 | 34.99477 | -89.94325 | 2513 ft | 122 kts | 80° |
| 2026-05-08 00:05 | 34.99587 | -89.93290 | 2534 ft | 123 kts | 80° |
| 2026-05-08 00:06 | 34.99727 | -89.92266 | 2572 ft | 122 kts | 76° |
| 2026-05-08 00:06 | 34.99914 | -89.91261 | 2451 ft | 121 kts | 75° |
| 2026-05-08 00:06 | 35.00124 | -89.90262 | 2369 ft | 121 kts | 79° |
| 2026-05-08 00:06 | 34.99958 | -89.89293 | 2349 ft | 119 kts | 116° |
| 2026-05-08 00:07 | 34.99530 | -89.88388 | 2110 ft | 122 kts | 114° |
| 2026-05-08 00:07 | 34.99198 | -89.87470 | 2016 ft | 117 kts | 113° |
| 2026-05-08 00:07 | 34.98896 | -89.86568 | 1920 ft | 112 kts | 101° |
| 2026-05-08 00:07 | 34.99019 | -89.85691 | 1773 ft | 109 kts | 62° |
| 2026-05-08 00:08 | 34.99266 | -89.84825 | 1637 ft | 108 kts | 78° |
| 2026-05-08 00:08 | 34.99235 | -89.83915 | 1511 ft | 108 kts | 103° |
| 2026-05-08 00:08 | 34.99005 | -89.83005 | 1290 ft | 115 kts | 107° |
| 2026-05-08 00:08 | 34.98643 | -89.82145 | 1150 ft | 112 kts | 120° |
| 2026-05-08 00:09 | 34.98330 | -89.81326 | 1060 ft | 105 kts | 111° |
| 2026-05-08 00:09 | 34.98005 | -89.80552 | 1010 ft | 99 kts | 109° |
| 2026-05-08 00:09 | 34.97757 | -89.79771 | 964 ft | 98 kts | 116° |
| 2026-05-08 00:09 | 34.97197 | -89.79416 | 1129 ft | 98 kts | 186° |
| 2026-05-08 00:10 | 34.96479 | -89.79475 | 1196 ft | 110 kts | 181° |
| 2026-05-08 00:10 | 34.95710 | -89.79415 | 1366 ft | 109 kts | 172° |
| 2026-05-08 00:10 | 34.94953 | -89.79154 | 1408 ft | 119 kts | 138° |
| 2026-05-08 00:10 | 34.94807 | -89.78285 | 1582 ft | 100 kts | 49° |
| 2026-05-08 00:11 | 34.95406 | -89.78232 | 1499 ft | 98 kts | 338° |
| 2026-05-08 00:11 | 34.96041 | -89.78497 | 1144 ft | 97 kts | 333° |
| 2026-05-08 00:11 | 34.96707 | -89.78609 | 775 ft | 94 kts | 349° |
| 2026-05-08 00:11 | 34.97360 | -89.78680 | 422 ft | 92 kts | 0° |
| 2026-05-08 00:12 | 34.97908 | -89.78675 | 419 ft | 74 kts | 349° |
| 2026-05-08 00:12 | 34.98497 | -89.78689 | 485 ft | 92 kts | 359° |
| 2026-05-08 00:12 | 34.99134 | -89.78646 | 723 ft | 88 kts | 15° |
| 2026-05-08 00:12 | 34.99600 | -89.78131 | 880 ft | 99 kts | 63° |
| 2026-05-08 00:13 | 34.99689 | -89.77288 | 954 ft | 114 kts | 93° |
| 2026-05-08 00:13 | 34.99348 | -89.76389 | 1090 ft | 117 kts | 131° |
| 2026-05-08 00:13 | 34.98870 | -89.75691 | 1449 ft | 99 kts | 128° |
| 2026-05-08 00:13 | 34.98406 | -89.75004 | 1515 ft | 114 kts | 128° |
| 2026-05-08 00:14 | 34.97867 | -89.74217 | 1522 ft | 127 kts | 129° |
| 2026-05-08 00:14 | 34.97301 | -89.73372 | 1521 ft | 130 kts | 128° |
| 2026-05-08 00:14 | 34.96728 | -89.72507 | 1519 ft | 132 kts | 128° |
| 2026-05-08 00:14 | 34.96150 | -89.71638 | 1518 ft | 132 kts | 128° |
| 2026-05-08 00:15 | 34.95564 | -89.70773 | 1514 ft | 132 kts | 128° |
| 2026-05-08 00:15 | 34.94985 | -89.69911 | 1514 ft | 130 kts | 128° |
| 2026-05-08 00:15 | 34.94437 | -89.69112 | 1498 ft | 116 kts | 128° |
| 2026-05-08 00:15 | 34.93953 | -89.68392 | 1502 ft | 104 kts | 128° |
| 2026-05-08 00:16 | 34.93516 | -89.67734 | 1503 ft | 97 kts | 128° |
| 2026-05-08 00:16 | 34.93097 | -89.67099 | 1502 ft | 95 kts | 128° |
| 2026-05-08 00:16 | 34.92683 | -89.66486 | 1504 ft | 91 kts | 128° |
| 2026-05-08 00:16 | 34.92280 | -89.65900 | 1505 ft | 90 kts | 128° |
| 2026-05-08 00:17 | 34.91874 | -89.65313 | 1509 ft | 91 kts | 128° |
| 2026-05-08 00:17 | 34.91463 | -89.64725 | 1509 ft | 91 kts | 129° |
| 2026-05-08 00:17 | 34.91070 | -89.64149 | 1504 ft | 89 kts | 129° |
| 2026-05-08 00:17 | 34.90529 | -89.63903 | 1517 ft | 86 kts | 189° |
| 2026-05-08 00:18 | 34.89961 | -89.63746 | 1500 ft | 86 kts | 134° |
| 2026-05-08 00:18 | 34.89528 | -89.63276 | 1511 ft | 83 kts | 139° |
| 2026-05-08 00:18 | 34.89110 | -89.62795 | 1513 ft | 84 kts | 136° |
| 2026-05-08 00:18 | 34.88660 | -89.62265 | 1531 ft | 97 kts | 134° |
| 2026-05-08 00:19 | 34.88140 | -89.61648 | 1519 ft | 110 kts | 133° |
| 2026-05-08 00:19 | 34.87591 | -89.60980 | 1520 ft | 113 kts | 133° |
| 2026-05-08 00:19 | 34.87008 | -89.60309 | 1519 ft | 118 kts | 147° |
| 2026-05-08 00:19 | 34.86216 | -89.60111 | 1524 ft | 118 kts | 188° |
| 2026-05-08 00:20 | 34.85500 | -89.60535 | 1519 ft | 115 kts | 227° |
| 2026-05-08 00:20 | 34.85149 | -89.61363 | 1526 ft | 110 kts | 264° |
| 2026-05-08 00:20 | 34.85256 | -89.62264 | 1522 ft | 108 kts | 300° |
| 2026-05-08 00:20 | 34.85628 | -89.63046 | 1519 ft | 106 kts | 302° |
| 2026-05-08 00:21 | 34.85995 | -89.63814 | 1515 ft | 104 kts | 302° |
| 2026-05-08 00:21 | 34.86355 | -89.64571 | 1516 ft | 103 kts | 303° |
| 2026-05-08 00:21 | 34.86719 | -89.65339 | 1520 ft | 106 kts | 303° |
| 2026-05-08 00:21 | 34.87097 | -89.66126 | 1522 ft | 109 kts | 303° |
| 2026-05-08 00:22 | 34.87478 | -89.66933 | 1519 ft | 110 kts | 302° |
| 2026-05-08 00:22 | 34.87862 | -89.67747 | 1520 ft | 111 kts | 302° |
| 2026-05-08 00:22 | 34.88247 | -89.68563 | 1519 ft | 111 kts | 302° |
| 2026-05-08 00:22 | 34.88633 | -89.69380 | 1520 ft | 111 kts | 303° |
| 2026-05-08 00:23 | 34.89016 | -89.70194 | 1518 ft | 111 kts | 303° |
| 2026-05-08 00:23 | 34.89401 | -89.71010 | 1518 ft | 111 kts | 302° |
| 2026-05-08 00:23 | 34.89788 | -89.71830 | 1518 ft | 111 kts | 303° |
| 2026-05-08 00:23 | 34.90173 | -89.72645 | 1515 ft | 111 kts | 302° |
| 2026-05-08 00:24 | 34.90556 | -89.73460 | 1519 ft | 111 kts | 302° |
| 2026-05-08 00:24 | 34.90939 | -89.74274 | 1518 ft | 111 kts | 302° |
| 2026-05-08 00:24 | 34.91318 | -89.75077 | 1518 ft | 111 kts | 302° |
| 2026-05-08 00:24 | 34.91704 | -89.75899 | 1517 ft | 110 kts | 302° |
| 2026-05-08 00:25 | 34.92082 | -89.76699 | 1516 ft | 111 kts | 302° |
| 2026-05-08 00:25 | 34.92465 | -89.77512 | 1516 ft | 111 kts | 302° |
| 2026-05-08 00:25 | 34.92850 | -89.78331 | 1501 ft | 111 kts | 302° |
| 2026-05-08 00:25 | 34.93234 | -89.79146 | 1502 ft | 111 kts | 302° |
| 2026-05-08 00:26 | 34.93617 | -89.79958 | 1497 ft | 110 kts | 302° |
| 2026-05-08 00:26 | 34.93998 | -89.80765 | 1496 ft | 109 kts | 302° |
| 2026-05-08 00:26 | 34.94369 | -89.81560 | 1491 ft | 107 kts | 302° |
| 2026-05-08 00:26 | 34.94735 | -89.82343 | 1487 ft | 105 kts | 302° |
| 2026-05-08 00:27 | 34.95097 | -89.83113 | 1491 ft | 105 kts | 302° |
| 2026-05-08 00:27 | 34.95459 | -89.83884 | 1491 ft | 105 kts | 303° |
| 2026-05-08 00:27 | 34.95821 | -89.84654 | 1491 ft | 105 kts | 303° |
| 2026-05-08 00:27 | 34.96184 | -89.85428 | 1491 ft | 106 kts | 302° |
| 2026-05-08 00:28 | 34.96553 | -89.86203 | 1492 ft | 106 kts | 302° |
| 2026-05-08 00:28 | 34.96919 | -89.86980 | 1492 ft | 106 kts | 302° |
| 2026-05-08 00:28 | 34.97284 | -89.87755 | 1490 ft | 105 kts | 303° |
| 2026-05-08 00:28 | 34.97645 | -89.88528 | 1491 ft | 105 kts | 302° |
| 2026-05-08 00:29 | 34.98007 | -89.89306 | 1488 ft | 105 kts | 301° |
| 2026-05-08 00:29 | 34.98268 | -89.90150 | 1501 ft | 103 kts | 295° |
| 2026-05-08 00:29 | 34.98523 | -89.90896 | 1469 ft | 108 kts | 284° |
| 2026-05-08 00:29 | 34.98534 | -89.91821 | 1454 ft | 108 kts | 274° |
| 2026-05-08 00:30 | 34.98510 | -89.92709 | 1446 ft | 103 kts | 268° |
| 2026-05-08 00:30 | 34.98420 | -89.93577 | 1400 ft | 104 kts | 269° |
| 2026-05-08 00:30 | 34.98357 | -89.94444 | 1385 ft | 103 kts | 266° |
| 2026-05-08 00:30 | 34.98266 | -89.95315 | 1350 ft | 103 kts | 270° |
| 2026-05-08 00:31 | 34.98237 | -89.96152 | 1407 ft | 99 kts | 271° |
| 2026-05-08 00:31 | 34.98174 | -89.97012 | 1355 ft | 103 kts | 268° |
| 2026-05-08 00:31 | 34.98146 | -89.97885 | 1344 ft | 99 kts | 287° |
| 2026-05-08 00:31 | 34.98567 | -89.98458 | 1372 ft | 93 kts | 336° |
| 2026-05-08 00:32 | 34.99210 | -89.98639 | 1277 ft | 95 kts | 355° |
| 2026-05-08 00:32 | 34.99851 | -89.98663 | 1194 ft | 89 kts | 1° |
| 2026-05-08 00:32 | 35.00434 | -89.98658 | 1086 ft | 77 kts | 0° |
| 2026-05-08 00:32 | 35.00954 | -89.98656 | 874 ft | 73 kts | 359° |
| 2026-05-08 00:33 | 35.01431 | -89.98653 | 675 ft | 67 kts | 356° |
| 2026-05-08 00:33 | 35.01905 | -89.98673 | 478 ft | 72 kts | 354° |
| 2026-05-08 00:33 | 35.02401 | -89.98689 | 381 ft | 70 kts | 355° |
| 2026-05-08 00:33 | 35.02829 | -89.98701 | 310 ft | 48 kts | 353° |
| 2026-05-08 00:34 | 35.03100 | -89.98708 | 309 ft | 32 kts | 2° |
| 2026-05-08 00:34 | 35.03317 | -89.98711 | 313 ft | 35 kts | 0° |
| 2026-05-08 00:34 | 35.03560 | -89.98715 | 308 ft | 29 kts | 1° |
| 2026-05-08 00:34 | 35.03655 | -89.98675 | 308 ft | 11 kts | 66° |
| 2026-05-08 00:35 | 35.03661 | -89.98609 | 307 ft | 0 kts | 95° |
| 2026-05-08 00:35 | 35.03664 | -89.98594 | 307 ft | 11 kts | 49° |
| 2026-05-08 00:35 | 35.03795 | -89.98590 | 305 ft | 27 kts | 359° |
| 2026-05-08 00:35 | 35.04034 | -89.98593 | 295 ft | 41 kts | 359° |
| 2026-05-08 00:36 | 35.04346 | -89.98596 | 290 ft | 47 kts | 2° |
| 2026-05-08 00:36 | 35.04653 | -89.98612 | 292 ft | 39 kts | 358° |
| 2026-05-08 00:36 | 35.04893 | -89.98626 | 294 ft | 30 kts | 5° |
| 2026-05-08 00:36 | 35.05073 | -89.98547 | 290 ft | 26 kts | 20° |
| 2026-05-08 00:37 | 35.05232 | -89.98513 | 279 ft | 23 kts | 360° |
| 2026-05-08 00:37 | 35.05360 | -89.98508 | 282 ft | 16 kts | 358° |
| 2026-05-08 00:37 | 35.05466 | -89.98508 | 280 ft | 14 kts | 360° |
| 2026-05-08 00:38 | 35.05568 | -89.98458 | 282 ft | 5 kts | 81° |
| 2026-05-08 00:38 | 35.05564 | -89.98408 | 283 ft | 6 kts | 115° |
| 2026-05-08 00:38 | 35.05522 | -89.98359 | 283 ft | 13 kts | 146° |
| 2026-05-08 00:38 | 35.05470 | -89.98294 | 284 ft | 12 kts | 114° |
| 2026-05-08 00:39 | 35.05445 | -89.98238 | 286 ft | 0 kts | 186° |